Time;durP1;ratioP1;P1;durP2;ratioP2;P2;SDS_P1;SDS_P2;PMS_P1;PMS_P2;Temp;Humidity;BMP_temperature;BMP_pressure;BME280_temperature;BME280_humidity;BME280_pressure;Samples;Min_cycle;Max_cycle;Signal;HPM_P1;HPM_P2
2022/06/25 00:01:27;;;;;;;0.80;0.80;;;23.70;73.50;;;;;;5067322;28;43821;-71
2022/06/25 00:03:56;;;;;;;0.80;0.80;;;23.80;73.00;;;;;;5049379;28;44088;-70
2022/06/25 00:06:24;;;;;;;0.80;0.80;;;24.00;72.30;;;;;;5068245;28;43751;-71
2022/06/25 00:08:55;;;;;;;0.73;0.73;;;24.10;71.90;;;;;;5067235;28;44098;-70
2022/06/25 00:14:27;;;;;;;0.70;0.70;;;24.40;71.00;;;;;;5067286;28;43962;-70
2022/06/25 00:17:25;;;;;;;0.70;0.70;;;24.50;70.60;;;;;;5049616;28;43894;-70
2022/06/25 00:20:00;;;;;;;0.80;0.80;;;24.60;70.20;;;;;;5049033;28;44955;-70
2022/06/25 00:22:29;;;;;;;0.80;0.80;;;24.70;69.90;;;;;;5048961;28;44717;-70
2022/06/25 00:24:57;;;;;;;0.80;0.80;;;24.70;69.60;;;;;;5067486;28;43960;-70
2022/06/25 00:27:26;;;;;;;0.80;0.80;;;24.60;69.60;;;;;;5067857;28;44024;-71
2022/06/25 00:29:56;;;;;;;0.80;0.80;;;24.50;70.00;;;;;;5067037;28;43971;-70
2022/06/25 00:32:27;;;;;;;0.73;0.73;;;24.30;70.60;;;;;;5067274;28;44062;-71
2022/06/25 00:34:57;;;;;;;0.60;0.60;;;24.10;70.90;;;;;;5067463;28;43927;-70
2022/06/25 00:37:25;;;;;;;0.77;0.77;;;23.90;71.10;;;;;;5049241;28;43531;-70
2022/06/25 00:39:53;;;;;;;0.73;0.73;;;23.70;71.40;;;;;;5066741;28;44854;-71
2022/06/25 00:42:21;;;;;;;0.80;0.80;;;23.60;71.90;;;;;;5048024;28;44719;-71
2022/06/25 00:44:49;;;;;;;0.70;0.70;;;23.60;72.30;;;;;;5035827;28;44035;-70
2022/06/25 00:47:17;;;;;;;0.60;0.60;;;23.50;72.50;;;;;;5067726;28;43898;-70
2022/06/25 00:49:46;;;;;;;0.70;0.70;;;23.40;72.60;;;;;;5048666;28;46344;-70
2022/06/25 00:52:15;;;;;;;0.60;0.60;;;23.40;72.90;;;;;;5048581;28;45613;-70
2022/06/25 00:54:46;;;;;;;0.70;0.70;;;23.30;73.00;;;;;;5035500;28;43976;-71
2022/06/25 00:57:16;;;;;;;0.53;0.53;;;23.30;73.10;;;;;;5067533;28;43951;-70
2022/06/25 00:59:44;;;;;;;0.60;0.60;;;23.30;73.20;;;;;;5066817;28;44726;-71
2022/06/25 01:02:12;;;;;;;0.67;0.67;;;23.20;73.20;;;;;;5035297;28;45215;-70
2022/06/25 01:04:41;;;;;;;0.70;0.70;;;23.20;73.20;;;;;;5049003;28;43471;-71
2022/06/25 01:07:10;;;;;;;0.70;0.70;;;23.20;73.30;;;;;;5048785;28;43894;-69
2022/06/25 01:09:38;;;;;;;0.70;0.70;;;23.20;73.30;;;;;;5066449;28;43985;-70
2022/06/25 01:12:07;;;;;;;0.70;0.70;;;23.20;74.40;;;;;;5048374;28;44521;-70
2022/06/25 01:14:36;;;;;;;2.27;0.70;;;23.30;74.30;;;;;;5048400;28;43937;-70
2022/06/25 01:17:06;;;;;;;0.70;0.70;;;23.40;74.00;;;;;;5048628;28;43484;-69
2022/06/25 01:19:35;;;;;;;1.20;0.83;;;23.60;73.50;;;;;;5048180;28;45684;-70
2022/06/25 01:22:05;;;;;;;1.53;0.93;;;23.80;72.90;;;;;;5048045;28;43417;-69
2022/06/25 01:24:33;;;;;;;1.30;0.80;;;23.90;72.20;;;;;;5048242;28;43375;-70
2022/06/25 01:27:01;;;;;;;2.93;0.80;;;24.10;71.90;;;;;;5067029;28;43955;-69
2022/06/25 01:29:30;;;;;;;0.50;0.50;;;24.20;71.30;;;;;;5047864;28;45609;-69
2022/06/25 01:31:57;;;;;;;0.83;0.83;;;24.40;71.00;;;;;;5066367;28;43824;-69
2022/06/25 01:34:26;;;;;;;0.80;0.80;;;24.40;70.60;;;;;;5048042;28;44046;-69
2022/06/25 01:36:55;;;;;;;0.77;0.77;;;24.50;70.30;;;;;;5066644;28;44002;-71
2022/06/25 01:39:25;;;;;;;0.70;0.70;;;24.60;70.00;;;;;;5047738;28;45656;-69
2022/06/25 01:41:55;;;;;;;0.70;0.70;;;24.50;70.00;;;;;;5066463;28;43989;-70
2022/06/25 01:44:24;;;;;;;0.70;0.70;;;24.40;71.20;;;;;;5066565;28;43326;-71
2022/06/25 01:46:52;;;;;;;0.70;0.70;;;24.10;70.90;;;;;;5066730;28;43931;-70
2022/06/25 01:49:20;;;;;;;0.70;0.70;;;24.00;71.10;;;;;;5047848;28;46105;-69
2022/06/25 01:51:48;;;;;;;1.17;0.60;;;23.80;71.40;;;;;;5066353;28;43324;-70
2022/06/25 01:54:16;;;;;;;0.80;0.80;;;23.70;72.60;;;;;;5068796;28;44063;-71
2022/06/25 01:56:47;;;;;;;0.70;0.70;;;23.50;72.10;;;;;;5052064;28;44051;-68
2022/06/25 01:59:15;;;;;;;0.73;0.73;;;23.40;72.40;;;;;;5051501;28;45644;-71
2022/06/25 02:01:43;;;;;;;1.17;0.70;;;23.40;73.40;;;;;;5051025;28;44454;-70
2022/06/25 02:04:14;;;;;;;0.63;0.63;;;23.30;73.50;;;;;;5051172;28;44009;-70
2022/06/25 02:06:42;;;;;;;0.73;0.73;;;23.30;73.00;;;;;;5070252;28;43421;-70
2022/06/25 02:09:10;;;;;;;0.90;0.90;;;23.30;73.20;;;;;;5051124;28;45827;-71
2022/06/25 02:11:38;;;;;;;0.70;0.70;;;23.20;73.20;;;;;;5051144;28;44742;-69
2022/06/25 02:14:07;;;;;;;0.80;0.80;;;23.20;73.30;;;;;;5051133;28;43943;-69
2022/06/25 02:16:35;;;;;;;0.60;0.60;;;23.20;74.40;;;;;;5069907;28;44026;-69
2022/06/25 02:19:05;;;;;;;0.60;0.60;;;23.30;74.40;;;;;;5050637;28;45013;-70
2022/06/25 02:21:33;;;;;;;0.60;0.60;;;23.40;74.10;;;;;;5050953;28;44993;-69
2022/06/25 02:24:01;;;;;;;0.90;0.90;;;23.50;73.70;;;;;;5051218;28;43336;-70
2022/06/25 02:26:30;;;;;;;0.67;0.67;;;23.70;73.20;;;;;;5051446;28;43736;-70
2022/06/25 02:29:00;;;;;;;0.67;0.67;;;23.90;72.70;;;;;;5069382;28;43861;-70
2022/06/25 02:31:31;;;;;;;0.93;0.70;;;24.00;72.20;;;;;;5047796;28;45371;-69
2022/06/25 02:33:59;;;;;;;2.33;0.80;;;24.10;71.60;;;;;;5063185;28;44106;-70
2022/06/25 02:36:28;;;;;;;0.70;0.70;;;24.20;71.20;;;;;;5051128;28;44132;-70
2022/06/25 02:38:58;;;;;;;4.33;0.80;;;24.30;70.80;;;;;;5050669;28;44059;-70
2022/06/25 02:41:29;;;;;;;2.13;0.83;;;24.40;70.50;;;;;;5050416;28;43930;-70
2022/06/25 02:44:02;;;;;;;9.73;1.00;;;24.50;70.10;;;;;;5050856;28;43853;-70
2022/06/25 02:46:45;;;;;;;2.23;0.90;;;24.60;69.70;;;;;;5050915;28;44063;-70
2022/06/25 02:49:13;;;;;;;1.57;0.70;;;24.50;69.50;;;;;;5050242;28;46934;-70
2022/06/25 02:51:41;;;;;;;2.83;0.63;;;24.40;69.80;;;;;;5050793;28;44976;-70
2022/06/25 02:54:10;;;;;;;3.87;0.80;;;24.30;70.50;;;;;;5050512;28;43953;-71
2022/06/25 02:59:26;;;;;;;0.90;0.90;;;23.90;71.10;;;;;;5050155;28;44167;-71
2022/06/25 03:01:55;;;;;;;1.10;1.10;;;23.70;71.60;;;;;;5056853;28;43968;-70
2022/06/25 03:04:29;;;;;;;0.80;0.80;;;23.60;71.90;;;;;;5030992;28;44108;-71
2022/06/25 03:06:58;;;;;;;0.70;0.70;;;23.50;72.20;;;;;;5068905;28;43988;-70
2022/06/25 03:09:27;;;;;;;0.63;0.63;;;23.40;72.50;;;;;;5050051;28;45856;-70
2022/06/25 03:11:56;;;;;;;2.37;0.70;;;23.30;72.70;;;;;;5050181;28;44787;-70
2022/06/25 03:14:25;;;;;;;1.00;0.90;;;23.30;72.90;;;;;;5050119;28;43472;-69
2022/06/25 03:16:53;;;;;;;0.70;0.70;;;23.20;72.90;;;;;;5050358;28;43948;-70
2022/06/25 03:19:23;;;;;;;0.67;0.67;;;23.20;73.10;;;;;;5049907;28;45793;-69
2022/06/25 03:22:08;;;;;;;0.93;0.80;;;23.20;73.20;;;;;;5050259;28;43371;-69
2022/06/25 03:24:36;;;;;;;0.80;0.80;;;23.20;73.20;;;;;;5068639;28;43997;-70
2022/06/25 03:27:05;;;;;;;1.17;1.03;;;23.20;73.30;;;;;;5068719;28;44015;-70
2022/06/25 03:29:34;;;;;;;1.10;1.10;;;23.10;73.20;;;;;;5046185;28;43927;-70
2022/06/25 03:32:02;;;;;;;1.80;1.30;;;23.10;73.20;;;;;;5049796;28;43905;-70
2022/06/25 03:34:52;;;;;;;1.57;1.47;;;23.10;73.30;;;;;;5067512;28;44031;-71
2022/06/25 03:37:20;;;;;;;2.63;1.77;;;23.10;74.00;;;;;;5069110;28;43805;-70
2022/06/25 03:39:48;;;;;;;4.10;2.00;;;23.10;74.90;;;;;;5068070;28;44784;-70
2022/06/25 03:42:16;;;;;;;3.43;1.87;;;23.30;74.00;;;;;;5050119;28;43946;-70
2022/06/25 03:45:05;;;;;;;3.27;2.00;;;23.50;73.50;;;;;;5067206;28;43836;-70
2022/06/25 03:47:35;;;;;;;4.33;2.60;;;23.70;72.90;;;;;;5050179;28;43559;-70
2022/06/25 03:50:08;;;;;;;3.13;2.23;;;23.80;72.30;;;;;;5049601;28;44054;-70
2022/06/25 03:52:37;;;;;;;3.13;2.30;;;24.00;71.80;;;;;;5049834;28;45089;-70
2022/06/25 03:55:06;;;;;;;3.97;2.60;;;24.10;71.20;;;;;;5067977;28;43815;-70
2022/06/25 03:57:37;;;;;;;4.30;2.47;;;24.30;70.70;;;;;;5050216;28;44122;-70
2022/06/25 04:00:19;;;;;;;3.17;2.67;;;24.30;70.50;;;;;;5049822;28;44002;-69
2022/06/25 04:02:57;;;;;;;3.73;2.73;;;24.40;70.10;;;;;;5067917;28;44121;-71
2022/06/25 04:05:29;;;;;;;5.53;2.80;;;24.40;69.80;;;;;;5064762;28;43920;-70
2022/06/25 04:08:26;;;;;;;3.40;2.60;;;24.40;70.20;;;;;;5047263;28;43987;-70
2022/06/25 04:10:57;;;;;;;4.37;2.67;;;24.20;70.80;;;;;;5049375;28;43872;-70
2022/06/25 04:13:25;;;;;;;3.17;2.47;;;24.00;71.50;;;;;;5043091;28;43962;-70
2022/06/25 04:15:54;;;;;;;4.33;2.90;;;23.80;71.00;;;;;;5039758;28;44008;-69
2022/06/25 04:18:29;;;;;;;6.23;2.87;;;23.60;71.30;;;;;;5043187;28;43929;-69
2022/06/25 04:20:59;;;;;;;4.80;3.00;;;23.50;71.80;;;;;;5067481;28;44803;-69
2022/06/25 04:23:28;;;;;;;4.30;2.70;;;23.40;72.00;;;;;;5049225;28;46078;-70
2022/06/25 04:25:57;;;;;;;3.53;2.90;;;23.40;72.30;;;;;;5049165;28;43983;-70
2022/06/25 04:31:32;;;;;;;4.27;2.87;;;23.20;72.70;;;;;;5066721;28;43925;-68
2022/06/25 04:34:02;;;;;;;5.47;3.00;;;23.20;72.90;;;;;;5048937;28;44742;-70
2022/06/25 04:36:34;;;;;;;7.13;3.40;;;23.20;73.80;;;;;;5049104;28;43989;-70
2022/06/25 04:39:12;;;;;;;6.30;3.00;;;23.20;74.10;;;;;;5067710;28;43954;-70
2022/06/25 04:41:41;;;;;;;7.63;3.27;;;23.30;74.00;;;;;;5048849;28;44800;-69
2022/06/25 04:44:19;;;;;;;4.60;3.30;;;23.40;73.60;;;;;;5049004;28;43892;-70
2022/06/25 04:46:50;;;;;;;3.27;2.97;;;23.60;73.10;;;;;;5031860;28;44066;-68
2022/06/25 04:49:27;;;;;;;4.93;3.63;;;23.70;72.50;;;;;;5048373;28;43433;-70
2022/06/25 04:52:01;;;;;;;5.50;3.37;;;23.90;72.00;;;;;;5048912;28;43829;-70
2022/06/25 04:54:31;;;;;;;5.60;3.40;;;24.00;71.40;;;;;;5048628;28;44701;-70
2022/06/25 04:57:09;;;;;;;4.90;2.97;;;24.10;70.90;;;;;;5043638;28;43423;-70
2022/06/25 04:59:56;;;;;;;3.40;3.03;;;24.30;70.60;;;;;;5049169;28;43504;-69
2022/06/25 05:02:33;;;;;;;3.70;2.80;;;24.30;70.30;;;;;;5048447;28;45846;-70
2022/06/25 05:05:10;;;;;;;5.90;3.27;;;24.40;69.80;;;;;;5048579;28;43968;-70
2022/06/25 05:07:41;;;;;;;4.80;3.57;;;24.40;69.80;;;;;;5048830;28;43982;-71
2022/06/25 05:10:10;;;;;;;6.37;3.80;;;24.20;70.10;;;;;;5029360;28;43504;-69
2022/06/25 05:15:28;;;;;;;3.40;3.10;;;23.90;70.70;;;;;;5048327;28;43965;-69
2022/06/25 05:17:58;;;;;;;3.13;2.83;;;23.70;71.10;;;;;;5066938;28;43983;-71
2022/06/25 05:20:27;;;;;;;4.00;2.80;;;23.60;71.60;;;;;;5067379;28;43996;-70
2022/06/25 05:22:58;;;;;;;3.20;2.90;;;23.50;71.80;;;;;;5066769;28;44627;-69
2022/06/25 05:25:28;;;;;;;5.27;3.20;;;23.40;72.20;;;;;;5030827;28;45641;-69
2022/06/25 05:27:56;;;;;;;3.43;3.13;;;23.30;72.40;;;;;;5046608;28;43816;-70
2022/06/25 05:30:25;;;;;;;3.80;2.93;;;23.20;72.50;;;;;;5053102;28;44061;-69
2022/06/25 05:32:54;;;;;;;3.20;2.90;;;23.20;72.70;;;;;;5055042;28;46096;-69
2022/06/25 05:35:23;;;;;;;3.80;3.00;;;23.20;72.90;;;;;;5073482;28;43979;-70
2022/06/25 05:37:52;;;;;;;2.87;2.67;;;23.20;72.90;;;;;;5073563;28;43860;-70
2022/06/25 05:40:24;;;;;;;4.70;3.43;;;23.10;72.90;;;;;;5055172;28;43865;-70
2022/06/25 05:42:53;;;;;;;4.97;3.20;;;23.10;73.10;;;;;;5073337;28;44016;-70
2022/06/25 05:45:25;;;;;;;3.97;3.13;;;23.10;73.10;;;;;;5055047;28;44761;-70
2022/06/25 05:47:54;;;;;;;4.63;3.30;;;23.00;73.30;;;;;;5073356;28;43972;-69
2022/06/25 05:50:27;;;;;;;3.67;3.10;;;23.10;74.80;;;;;;5066835;28;43341;-71
2022/06/25 05:52:57;;;;;;;3.37;3.03;;;23.10;73.90;;;;;;5073150;28;43983;-70
2022/06/25 05:55:31;;;;;;;3.20;2.90;;;23.30;73.80;;;;;;5072870;28;44014;-70
2022/06/25 05:58:00;;;;;;;3.77;2.90;;;23.50;73.40;;;;;;5073214;28;43975;-70
2022/06/25 06:00:28;;;;;;;3.53;3.07;;;23.60;72.80;;;;;;5073382;28;43901;-70
2022/06/25 06:02:56;;;;;;;3.30;2.70;;;23.80;72.20;;;;;;5072689;28;44636;-69
2022/06/25 06:05:26;;;;;;;3.70;3.23;;;23.90;71.60;;;;;;5072821;28;43968;-69
2022/06/25 06:07:56;;;;;;;4.83;2.90;;;24.00;71.20;;;;;;5073156;28;43904;-70
2022/06/25 06:10:24;;;;;;;3.90;2.90;;;24.20;70.80;;;;;;5073306;28;43881;-70
2022/06/25 06:12:57;;;;;;;3.00;2.60;;;24.30;70.60;;;;;;5072653;28;43908;-70
2022/06/25 06:15:25;;;;;;;3.40;2.83;;;24.30;70.10;;;;;;5054493;28;44459;-70
2022/06/25 06:17:53;;;;;;;4.27;2.97;;;24.40;69.90;;;;;;5072973;28;44015;-70
2022/06/25 06:20:21;;;;;;;3.10;2.57;;;24.40;69.50;;;;;;5054722;28;43938;-69
2022/06/25 06:22:49;;;;;;;2.83;2.63;;;24.40;69.80;;;;;;5072985;28;44714;-71
2022/06/25 06:25:17;;;;;;;3.20;2.90;;;24.20;70.30;;;;;;5072727;28;43377;-70
2022/06/25 06:27:45;;;;;;;2.70;2.50;;;24.00;70.60;;;;;;5073062;28;44409;-71
2022/06/25 06:30:17;;;;;;;4.47;2.83;;;23.80;70.80;;;;;;5073108;28;43475;-70
2022/06/25 06:32:46;;;;;;;2.87;2.67;;;23.60;71.20;;;;;;5072694;28;43922;-70
2022/06/25 06:35:14;;;;;;;2.80;2.60;;;23.50;71.70;;;;;;5072404;28;44114;-70
2022/06/25 06:37:45;;;;;;;3.23;2.60;;;23.40;72.00;;;;;;5072773;28;43945;-71
2022/06/25 06:40:15;;;;;;;2.93;2.70;;;23.30;72.40;;;;;;5070229;28;43813;-69
2022/06/25 06:42:42;;;;;;;3.03;2.73;;;23.20;72.50;;;;;;5069388;28;43682;-69
2022/06/25 06:45:16;;;;;;;3.17;2.87;;;23.10;72.70;;;;;;5068758;28;43960;-70
2022/06/25 06:47:46;;;;;;;3.50;3.20;;;23.10;72.90;;;;;;5069249;28;43905;-69
2022/06/25 06:50:15;;;;;;;2.70;2.47;;;23.10;73.00;;;;;;5051248;28;44215;-70
2022/06/25 06:52:45;;;;;;;3.47;2.50;;;23.00;73.00;;;;;;5069115;28;43952;-69
2022/06/25 06:55:41;;;;;;;2.20;2.10;;;23.00;73.10;;;;;;5068787;28;43845;-70
2022/06/25 06:58:48;;;;;;;2.70;2.50;;;23.00;73.20;;;;;;5022969;28;43976;-70
2022/06/25 07:05:31;;;;;;;3.90;2.53;;;23.00;73.40;;;;;;5061298;28;44037;-71
2022/06/25 07:07:59;;;;;;;2.60;2.40;;;23.00;74.30;;;;;;5068803;28;43507;-69
2022/06/25 07:10:27;;;;;;;3.60;2.33;;;23.00;74.10;;;;;;5069066;28;43436;-69
2022/06/25 07:12:55;;;;;;;3.97;2.33;;;23.20;73.60;;;;;;5069342;28;43416;-70
2022/06/25 07:15:23;;;;;;;2.20;2.10;;;23.30;73.00;;;;;;5068710;28;44042;-70
2022/06/25 07:17:56;;;;;;;3.83;2.50;;;23.60;72.70;;;;;;5068918;28;43869;-69
2022/06/25 07:20:24;;;;;;;2.27;2.10;;;23.70;72.00;;;;;;5050569;28;43418;-70
2022/06/25 07:22:55;;;;;;;2.47;2.33;;;23.90;71.60;;;;;;5069296;28;43826;-70
2022/06/25 07:25:23;;;;;;;2.67;2.33;;;24.00;71.20;;;;;;5068657;28;44976;-69
2022/06/25 07:27:51;;;;;;;2.80;2.60;;;24.10;70.80;;;;;;5068603;28;44020;-70
2022/06/25 07:30:20;;;;;;;2.33;2.23;;;24.20;70.60;;;;;;5068474;28;43908;-70
2022/06/25 07:32:48;;;;;;;2.50;2.30;;;24.20;70.00;;;;;;5050687;28;43915;-69
2022/06/25 07:35:16;;;;;;;2.10;2.00;;;24.30;70.00;;;;;;5049837;28;46527;-69
2022/06/25 07:37:44;;;;;;;2.50;2.30;;;24.20;70.10;;;;;;5068363;28;43896;-69
2022/06/25 07:40:22;;;;;;;2.43;2.23;;;24.00;70.50;;;;;;5068204;28;44071;-71
2022/06/25 07:42:50;;;;;;;2.17;2.07;;;23.80;70.80;;;;;;5068774;28;43772;-69
2022/06/25 07:45:18;;;;;;;2.30;2.10;;;23.60;70.90;;;;;;5067998;28;44024;-69
2022/06/25 07:47:46;;;;;;;2.27;2.07;;;23.50;71.30;;;;;;5068104;28;43917;-69
2022/06/25 07:53:00;;;;;;;2.20;2.10;;;23.20;71.90;;;;;;5068395;28;43879;-69
2022/06/25 07:55:29;;;;;;;1.80;1.70;;;23.20;72.40;;;;;;5068027;28;43948;-70
2022/06/25 07:57:57;;;;;;;1.90;1.80;;;23.10;72.50;;;;;;5068275;28;43944;-70
2022/06/25 08:00:25;;;;;;;2.10;2.00;;;23.10;72.70;;;;;;5050032;28;43927;-69
2022/06/25 08:02:53;;;;;;;1.93;1.93;;;23.00;72.80;;;;;;5068356;28;43880;-69
2022/06/25 08:05:21;;;;;;;1.70;1.60;;;23.00;72.90;;;;;;5067923;28;44894;-70
2022/06/25 08:07:49;;;;;;;1.73;1.63;;;23.00;73.00;;;;;;5067886;28;44008;-70
2022/06/25 08:10:17;;;;;;;2.30;2.10;;;23.00;73.10;;;;;;5067903;28;43432;-70
2022/06/25 08:12:47;;;;;;;1.90;1.80;;;22.90;73.10;;;;;;5068464;28;44084;-70
2022/06/25 08:15:16;;;;;;;2.10;1.90;;;22.90;73.90;;;;;;5067591;28;43940;-70
2022/06/25 08:17:44;;;;;;;4.27;2.00;;;23.00;73.90;;;;;;5048867;28;44283;-71
2022/06/25 08:20:12;;;;;;;7.20;2.07;;;23.10;73.50;;;;;;5067667;28;43921;-71
2022/06/25 08:22:40;;;;;;;6.20;2.20;;;23.20;73.40;;;;;;5068223;28;44023;-70
2022/06/25 08:25:09;;;;;;;6.33;2.03;;;23.40;73.20;;;;;;5067676;28;44044;-72
2022/06/25 08:27:46;;;;;;;19.07;3.17;;;23.50;72.70;;;;;;5067587;28;43484;-70
2022/06/25 08:30:14;;;;;;;20.60;2.80;;;23.60;71.90;;;;;;5067639;28;44010;-70
2022/06/25 08:32:42;;;;;;;24.47;2.80;;;23.70;70.90;;;;;;5067956;28;44133;-69
2022/06/25 08:35:10;;;;;;;25.20;3.23;;;23.80;70.40;;;;;;5067399;28;43876;-70
2022/06/25 08:37:38;;;;;;;16.20;3.43;;;23.90;70.40;;;;;;5067407;28;44202;-71
2022/06/25 08:40:08;;;;;;;9.03;2.30;;;23.90;70.10;;;;;;5049169;28;44026;-70
2022/06/25 08:42:36;;;;;;;13.30;2.90;;;23.90;70.10;;;;;;5049492;28;43588;-70
2022/06/25 08:45:06;;;;;;;29.73;3.40;;;24.00;70.40;;;;;;5067275;28;43601;-70
2022/06/25 08:47:34;;;;;;;5.90;2.70;;;24.00;70.50;;;;;;5067229;28;43906;-70
2022/06/25 08:50:05;;;;;;;5.63;2.20;;;23.90;70.40;;;;;;5067133;28;43415;-71
2022/06/25 08:52:33;;;;;;;4.23;2.40;;;23.90;70.80;;;;;;5067672;28;43947;-72
2022/06/25 08:55:01;;;;;;;3.07;2.30;;;23.70;70.80;;;;;;5067345;28;43773;-70
2022/06/25 08:57:29;;;;;;;4.20;2.20;;;23.50;71.20;;;;;;5048707;28;45213;-70
2022/06/25 08:59:57;;;;;;;2.40;2.20;;;23.40;71.70;;;;;;5067520;28;43984;-71
2022/06/25 09:02:26;;;;;;;6.40;2.03;;;23.30;72.00;;;;;;5048477;28;43901;-69
2022/06/25 09:04:55;;;;;;;4.47;2.10;;;23.20;73.10;;;;;;5066510;28;44950;-69
2022/06/25 09:07:23;;;;;;;3.43;2.07;;;23.10;72.60;;;;;;5048890;28;44722;-70
2022/06/25 09:09:51;;;;;;;1.90;1.80;;;23.10;72.90;;;;;;5067108;28;43354;-71
2022/06/25 09:12:19;;;;;;;2.63;1.93;;;23.00;72.90;;;;;;5067216;28;44088;-69
2022/06/25 09:14:47;;;;;;;2.00;1.90;;;23.00;73.10;;;;;;5066547;28;44738;-71
2022/06/25 09:17:15;;;;;;;2.20;2.00;;;23.00;73.20;;;;;;5066809;28;43380;-71
2022/06/25 09:19:47;;;;;;;1.90;1.80;;;23.00;73.30;;;;;;5066908;28;43986;-71
2022/06/25 09:22:17;;;;;;;5.60;2.27;;;22.90;73.20;;;;;;5060704;28;43270;-70
2022/06/25 09:24:49;;;;;;;1.80;1.70;;;22.90;73.30;;;;;;5056332;28;46341;-71
2022/06/25 09:27:20;;;;;;;2.73;2.00;;;22.90;73.40;;;;;;5066757;28;43916;-70
2022/06/25 09:29:49;;;;;;;3.10;1.77;;;22.90;73.40;;;;;;5066954;28;43812;-70
2022/06/25 09:32:17;;;;;;;3.80;2.07;;;22.90;73.50;;;;;;5066909;28;43971;-71
2022/06/25 09:34:47;;;;;;;2.13;1.83;;;22.90;74.00;;;;;;5066792;28;43995;-70
2022/06/25 09:37:19;;;;;;;1.63;1.57;;;22.90;74.20;;;;;;5066503;28;43971;-71
2022/06/25 09:39:47;;;;;;;2.00;1.90;;;23.00;74.10;;;;;;5066428;28;43984;-70
2022/06/25 09:42:20;;;;;;;1.90;1.80;;;23.10;73.80;;;;;;5067060;28;43994;-71
2022/06/25 09:44:48;;;;;;;1.43;1.40;;;23.30;73.30;;;;;;5066546;28;44177;-71
2022/06/25 09:47:16;;;;;;;1.77;1.60;;;23.40;72.90;;;;;;5066416;28;43922;-69
2022/06/25 09:49:44;;;;;;;1.70;1.60;;;23.50;72.40;;;;;;5066478;28;44059;-71
2022/06/25 09:52:14;;;;;;;1.80;1.60;;;23.60;71.90;;;;;;5066824;28;44012;-71
2022/06/25 09:54:42;;;;;;;4.20;1.77;;;23.70;71.60;;;;;;5066418;28;43774;-70
2022/06/25 09:57:10;;;;;;;2.73;1.53;;;23.80;71.30;;;;;;5047885;28;45014;-70
2022/06/25 09:59:38;;;;;;;1.70;1.60;;;23.90;71.00;;;;;;5066565;28;44051;-72
2022/06/25 10:02:06;;;;;;;1.93;1.60;;;24.00;70.80;;;;;;5066505;28;43983;-70
2022/06/25 10:04:35;;;;;;;2.70;1.50;;;24.00;70.60;;;;;;5065903;28;44902;-70
2022/06/25 10:07:06;;;;;;;2.17;1.90;;;23.90;70.70;;;;;;5066261;28;43971;-71
2022/06/25 10:09:35;;;;;;;1.60;1.50;;;23.80;71.00;;;;;;5066416;28;43904;-70
2022/06/25 10:12:05;;;;;;;1.50;1.50;;;23.60;71.10;;;;;;5066703;28;43728;-71
2022/06/25 10:14:34;;;;;;;1.47;1.37;;;23.50;71.50;;;;;;5066206;28;43917;-71
2022/06/25 10:17:03;;;;;;;1.60;1.50;;;23.40;71.90;;;;;;5069249;28;44043;-71
2022/06/25 10:19:31;;;;;;;1.50;1.40;;;23.30;72.20;;;;;;5069679;28;43901;-71
2022/06/25 10:22:00;;;;;;;1.53;1.47;;;23.20;72.50;;;;;;5070049;28;44037;-71
2022/06/25 10:24:28;;;;;;;1.40;1.40;;;23.10;72.80;;;;;;5051480;28;45400;-69
2022/06/25 10:26:57;;;;;;;1.60;1.50;;;23.10;73.00;;;;;;5069686;28;43317;-70
2022/06/25 10:29:26;;;;;;;1.30;1.20;;;23.10;73.20;;;;;;5050934;28;43891;-70
2022/06/25 10:32:12;;;;;;;1.60;1.50;;;23.00;73.20;;;;;;5070025;28;43409;-70
2022/06/25 10:34:53;;;;;;;1.40;1.40;;;23.00;73.30;;;;;;5069412;28;43834;-69
2022/06/25 10:37:24;;;;;;;1.40;1.40;;;23.00;73.50;;;;;;5069258;28;43947;-70
2022/06/25 10:39:53;;;;;;;1.50;1.50;;;23.00;73.50;;;;;;5069434;28;43837;-71
2022/06/25 10:45:54;;;;;;;1.40;1.30;;;22.90;73.50;;;;;;5069397;28;43887;-70
2022/06/25 10:48:25;;;;;;;1.30;1.30;;;22.90;74.80;;;;;;5049381;28;44883;-71
2022/06/25 10:50:56;;;;;;;1.37;1.37;;;22.90;74.40;;;;;;5051183;28;43908;-69
2022/06/25 10:53:25;;;;;;;1.47;1.47;;;23.00;74.30;;;;;;5069569;28;43946;-71
2022/06/25 10:56:19;;;;;;;1.50;1.40;;;23.10;74.10;;;;;;5050871;28;44050;-71
2022/06/25 10:58:49;;;;;;;1.50;1.50;;;23.20;73.70;;;;;;5068997;28;44333;-70
2022/06/25 11:01:31;;;;;;;1.33;1.13;;;23.30;73.20;;;;;;5068744;28;44082;-70
2022/06/25 11:04:01;;;;;;;1.53;1.50;;;23.50;72.80;;;;;;5069209;28;43979;-71
2022/06/25 11:06:32;;;;;;;1.37;1.37;;;23.60;72.30;;;;;;5068927;28;44822;-70
2022/06/25 11:09:08;;;;;;;1.30;1.30;;;23.70;72.00;;;;;;5068874;28;43979;-70
2022/06/25 11:11:36;;;;;;;1.37;1.37;;;23.80;71.50;;;;;;5062375;28;43385;-70
2022/06/25 11:14:14;;;;;;;1.10;1.10;;;23.90;71.30;;;;;;5069261;28;44050;-70
2022/06/25 11:16:43;;;;;;;1.20;1.20;;;23.90;71.10;;;;;;5068698;28;44963;-70
2022/06/25 11:19:11;;;;;;;1.47;1.37;;;24.00;70.90;;;;;;5068389;28;44013;-71
2022/06/25 11:21:39;;;;;;;1.30;1.30;;;24.00;70.90;;;;;;5068768;28;44031;-71
2022/06/25 11:24:12;;;;;;;1.50;1.40;;;23.90;71.10;;;;;;5069175;28;43970;-71
2022/06/25 11:29:29;;;;;;;1.30;1.30;;;23.60;71.50;;;;;;5068604;28;43936;-69
2022/06/25 11:31:57;;;;;;;1.30;1.30;;;23.40;71.90;;;;;;5068580;28;43474;-70
2022/06/25 11:34:26;;;;;;;1.40;1.40;;;23.30;72.20;;;;;;5069207;28;43814;-71
2022/06/25 11:37:05;;;;;;;1.47;1.47;;;23.20;72.50;;;;;;5036757;28;45324;-70
2022/06/25 11:39:35;;;;;;;1.40;1.40;;;23.10;72.80;;;;;;5061636;28;43450;-71
2022/06/25 11:42:04;;;;;;;1.67;1.67;;;23.10;73.10;;;;;;5049993;28;44037;-70
2022/06/25 11:44:41;;;;;;;1.60;1.60;;;23.00;73.20;;;;;;5069005;28;43942;-71
2022/06/25 11:47:11;;;;;;;1.40;1.40;;;23.00;73.30;;;;;;5068049;28;43935;-71
2022/06/25 11:49:40;;;;;;;1.60;1.60;;;23.00;73.50;;;;;;5068262;28;43386;-70
2022/06/25 11:52:08;;;;;;;1.87;1.80;;;23.00;73.60;;;;;;5068352;28;43901;-70
2022/06/25 11:54:37;;;;;;;1.70;1.70;;;22.90;73.60;;;;;;5068499;28;44068;-70
2022/06/25 11:57:06;;;;;;;1.60;1.60;;;22.90;73.60;;;;;;5068016;28;44802;-71
2022/06/25 11:59:35;;;;;;;1.60;1.60;;;22.90;73.60;;;;;;5067922;28;43955;-70
2022/06/25 12:02:04;;;;;;;1.80;1.80;;;22.90;73.70;;;;;;5067576;28;43906;-69
2022/06/25 12:04:32;;;;;;;1.70;1.70;;;22.90;73.80;;;;;;5068674;28;43981;-70
2022/06/25 12:07:00;;;;;;;1.90;1.80;;;22.90;74.40;;;;;;5067893;28;43900;-70
2022/06/25 12:09:29;;;;;;;1.60;1.60;;;22.90;74.30;;;;;;5067955;28;44015;-70
2022/06/25 12:11:57;;;;;;;1.70;1.60;;;23.00;74.20;;;;;;5067823;28;44042;-70
2022/06/25 12:14:26;;;;;;;1.60;1.60;;;23.10;73.90;;;;;;5068555;28;44034;-70
2022/06/25 12:16:54;;;;;;;1.60;1.60;;;23.20;73.50;;;;;;5067943;28;45237;-71
2022/06/25 12:19:23;;;;;;;1.40;1.40;;;23.40;73.10;;;;;;5067615;28;43631;-69
2022/06/25 12:21:51;;;;;;;1.80;1.80;;;23.50;72.70;;;;;;5067892;28;43368;-70
2022/06/25 12:24:20;;;;;;;1.30;1.30;;;23.60;72.90;;;;;;5049716;28;43834;-70
2022/06/25 12:26:52;;;;;;;1.60;1.60;;;23.70;72.00;;;;;;5067543;28;44013;-70
2022/06/25 12:29:21;;;;;;;1.57;1.57;;;23.80;71.60;;;;;;5067655;28;43333;-70
2022/06/25 12:31:54;;;;;;;1.60;1.50;;;23.90;71.40;;;;;;5067716;28;43941;-71
2022/06/25 12:34:24;;;;;;;1.57;1.57;;;23.90;71.30;;;;;;5049718;28;44040;-70
2022/06/25 12:36:52;;;;;;;1.50;1.50;;;23.80;71.30;;;;;;5067465;28;43891;-70
2022/06/25 12:39:32;;;;;;;1.53;1.50;;;23.70;71.50;;;;;;5066079;28;43932;-71
2022/06/25 12:42:03;;;;;;;1.50;1.50;;;23.60;71.70;;;;;;5060942;28;43984;-70
2022/06/25 12:44:35;;;;;;;1.50;1.50;;;23.40;71.90;;;;;;5068005;28;44026;-71
2022/06/25 12:47:05;;;;;;;1.57;1.47;;;23.30;72.20;;;;;;5067357;28;43962;-70
2022/06/25 12:49:48;;;;;;;7.10;2.00;;;23.20;72.60;;;;;;5067255;28;43416;-71
2022/06/25 12:52:17;;;;;;;19.70;2.47;;;23.10;72.90;;;;;;5067101;28;43391;-71
2022/06/25 12:54:48;;;;;;;4.67;2.40;;;23.10;73.20;;;;;;5067857;28;43500;-71
2022/06/25 12:57:24;;;;;;;11.90;2.33;;;23.00;73.30;;;;;;5067187;28;44709;-70
2022/06/25 12:59:52;;;;;;;3.07;2.17;;;23.00;73.60;;;;;;5067269;28;44134;-70
2022/06/25 13:02:23;;;;;;;4.57;2.37;;;23.00;73.70;;;;;;5067165;28;43340;-70
2022/06/25 13:04:53;;;;;;;4.47;2.13;;;22.90;73.60;;;;;;5067494;28;44027;-70
2022/06/25 13:07:21;;;;;;;7.60;2.00;;;22.90;73.70;;;;;;5048577;28;46809;-70
2022/06/25 13:09:49;;;;;;;3.23;1.83;;;22.90;73.80;;;;;;5048592;28;44588;-71
2022/06/25 13:12:25;;;;;;;3.33;2.00;;;22.90;73.90;;;;;;5067102;28;43885;-70
2022/06/25 13:14:53;;;;;;;2.17;1.90;;;22.90;74.40;;;;;;5061295;28;43940;-70
2022/06/25 13:17:21;;;;;;;3.43;2.33;;;22.90;74.50;;;;;;5060430;28;43751;-70
2022/06/25 13:19:49;;;;;;;3.40;2.17;;;23.00;74.60;;;;;;5066624;28;44476;-70
2022/06/25 13:22:19;;;;;;;3.03;1.83;;;23.00;74.30;;;;;;5060477;28;43987;-69
2022/06/25 13:24:47;;;;;;;2.97;1.90;;;23.10;73.90;;;;;;5060950;28;43914;-70
2022/06/25 13:27:17;;;;;;;2.47;1.80;;;23.30;73.70;;;;;;5066729;28;43621;-70